createdAt,value
2022-10-08T00:01:45.299Z,14.80
2022-10-08T00:04:13.021Z,10.52
2022-10-08T00:06:40.217Z,11.68
2022-10-08T00:09:07.980Z,13.02
2022-10-08T00:11:39.447Z,10.95
2022-10-08T00:14:07.810Z,8.57
2022-10-08T00:16:36.785Z,8.70
2022-10-08T00:19:06.624Z,8.20
2022-10-08T00:21:35.487Z,9.45
2022-10-08T00:24:03.299Z,9.52
2022-10-08T00:26:31.716Z,10.00
2022-10-08T00:29:00.186Z,10.60
2022-10-08T00:31:28.799Z,12.00
2022-10-08T00:33:56.926Z,10.57
2022-10-08T00:36:25.731Z,14.18
2022-10-08T00:38:55.876Z,12.20
2022-10-08T00:41:24.283Z,12.90
2022-10-08T00:43:52.910Z,12.52
2022-10-08T00:46:23.503Z,12.60
2022-10-08T00:48:53.442Z,14.27
2022-10-08T00:51:20.549Z,15.50
2022-10-08T00:53:47.646Z,17.63
2022-10-08T00:56:14.742Z,16.50
2022-10-08T00:58:42.337Z,12.50
2022-10-08T01:01:09.624Z,14.02
2022-10-08T01:03:36.793Z,14.57
2022-10-08T01:06:13.696Z,12.73
2022-10-08T01:08:46.270Z,12.93
2022-10-08T01:11:33.488Z,12.55
2022-10-08T01:14:20.878Z,12.05
2022-10-08T01:16:54.157Z,14.25
2022-10-08T01:19:36.700Z,12.68
2022-10-08T01:22:23.652Z,11.70
2022-10-08T01:25:13.364Z,12.13
2022-10-08T01:27:43.677Z,12.40
2022-10-08T01:30:12.557Z,13.23
2022-10-08T01:32:42.176Z,14.82
2022-10-08T01:35:13.614Z,11.75
2022-10-08T01:37:42.421Z,16.48
2022-10-08T01:40:14.420Z,12.43
2022-10-08T01:42:41.955Z,14.52
2022-10-08T01:45:12.173Z,13.57
2022-10-08T01:47:40.656Z,11.95
2022-10-08T01:50:12.807Z,12.35
2022-10-08T01:52:43.839Z,11.45
2022-10-08T01:55:14.773Z,12.55
2022-10-08T01:57:42.452Z,16.08
2022-10-08T02:00:11.625Z,12.98
2022-10-08T02:02:39.069Z,14.05
2022-10-08T02:05:06.915Z,14.45
2022-10-08T02:07:36.839Z,14.32
2022-10-08T02:10:08.807Z,16.08
2022-10-08T02:12:36.455Z,17.95
2022-10-08T02:15:04.591Z,15.45
2022-10-08T02:17:36.141Z,16.85
2022-10-08T02:20:09.206Z,16.00
2022-10-08T02:22:38.606Z,13.95
2022-10-08T02:25:10.451Z,14.00
2022-10-08T02:27:52.384Z,14.02
2022-10-08T02:30:19.844Z,15.70
2022-10-08T02:32:49.574Z,14.40
2022-10-08T02:35:22.747Z,14.38
2022-10-08T02:37:53.759Z,13.70
2022-10-08T02:40:21.423Z,13.82
2022-10-08T02:42:52.318Z,14.07
2022-10-08T02:45:25.371Z,14.20
2022-10-08T02:47:54.600Z,14.05
2022-10-08T02:50:23.110Z,15.75
2022-10-08T02:52:51.463Z,15.48
2022-10-08T02:55:25.107Z,15.15
2022-10-08T02:57:57.063Z,14.13
2022-10-08T03:00:24.467Z,13.77
2022-10-08T03:03:11.470Z,14.75
2022-10-08T03:05:39.834Z,16.10
2022-10-08T03:08:08.099Z,14.98
2022-10-08T03:10:37.008Z,15.32
2022-10-08T03:13:04.322Z,16.95
2022-10-08T03:15:33.098Z,16.15
2022-10-08T03:18:01.557Z,14.15
2022-10-08T03:20:30.290Z,13.68
2022-10-08T03:22:59.899Z,14.27
2022-10-08T03:25:26.963Z,13.07
2022-10-08T03:27:54.078Z,12.98
2022-10-08T03:30:21.158Z,14.15
2022-10-08T03:32:48.419Z,12.90
2022-10-08T03:35:15.683Z,13.82
2022-10-08T03:37:42.836Z,13.63
2022-10-08T03:40:10.302Z,15.75
2022-10-08T03:42:37.417Z,15.80
2022-10-08T03:45:04.879Z,16.38
2022-10-08T03:47:32.022Z,14.00
2022-10-08T03:49:59.078Z,14.23
2022-10-08T03:52:25.750Z,16.50
2022-10-08T03:54:52.907Z,15.65
2022-10-08T03:57:19.990Z,15.27
2022-10-08T03:59:47.163Z,13.77
2022-10-08T04:02:14.235Z,14.07
2022-10-08T04:04:41.422Z,14.23
2022-10-08T04:07:08.499Z,14.38
2022-10-08T04:09:35.697Z,15.43
2022-10-08T04:12:02.754Z,21.48
2022-10-08T04:14:29.930Z,16.60
2022-10-08T04:16:57.020Z,19.92
2022-10-08T04:19:24.130Z,16.45
2022-10-08T04:21:51.253Z,15.18
2022-10-08T04:24:18.318Z,16.60
2022-10-08T04:26:45.002Z,16.75
2022-10-08T04:29:12.598Z,16.33
2022-10-08T04:31:40.426Z,20.83
2022-10-08T04:34:07.516Z,19.60
2022-10-08T04:36:34.649Z,15.75
2022-10-08T04:39:01.774Z,16.55
2022-10-08T04:41:28.906Z,17.92
2022-10-08T04:44:00.207Z,21.75
2022-10-08T04:46:27.477Z,18.23
2022-10-08T04:48:55.723Z,14.65
2022-10-08T04:51:24.197Z,17.63
2022-10-08T04:53:51.781Z,17.02
2022-10-08T04:56:20.378Z,19.08
2022-10-08T04:58:47.661Z,16.58
2022-10-08T05:01:16.372Z,16.42
2022-10-08T05:03:45.349Z,16.85
2022-10-08T05:06:14.828Z,16.08
2022-10-08T05:08:42.020Z,17.15
2022-10-08T05:11:09.541Z,16.45
2022-10-08T05:13:36.664Z,18.27
2022-10-08T05:16:05.228Z,22.75
2022-10-08T05:18:33.438Z,21.15
2022-10-08T05:21:17.032Z,20.10
2022-10-08T05:23:44.191Z,19.40
2022-10-08T05:26:12.216Z,21.67
2022-10-08T05:28:39.355Z,18.10
2022-10-08T05:31:06.547Z,17.52
2022-10-08T05:33:35.231Z,18.55
2022-10-08T05:36:04.477Z,18.92
2022-10-08T05:38:34.908Z,20.35
2022-10-08T05:41:11.524Z,19.15
2022-10-08T05:43:38.748Z,17.02
2022-10-08T05:46:06.020Z,17.40
2022-10-08T05:48:33.365Z,20.23
2022-10-08T05:51:08.520Z,15.38
2022-10-08T05:53:36.619Z,15.63
2022-10-08T05:56:04.692Z,20.42
2022-10-08T05:58:32.296Z,22.20
2022-10-08T06:01:00.179Z,19.15
2022-10-08T06:03:27.571Z,19.88
2022-10-08T06:05:54.751Z,22.20
2022-10-08T06:08:22.424Z,19.77
2022-10-08T06:10:53.035Z,21.25
2022-10-08T06:13:20.935Z,21.60
2022-10-08T06:16:03.656Z,21.95
2022-10-08T06:18:32.285Z,17.05
2022-10-08T06:21:04.251Z,15.85
2022-10-08T06:23:31.671Z,17.10
2022-10-08T06:26:02.714Z,16.95
2022-10-08T06:28:29.440Z,17.23
2022-10-08T06:30:56.641Z,20.58
2022-10-08T06:33:23.296Z,16.70
2022-10-08T06:35:50.455Z,15.73
2022-10-08T06:38:17.939Z,17.85
2022-10-08T06:40:44.974Z,18.30
2022-10-08T06:43:15.285Z,16.38
2022-10-08T06:45:43.373Z,17.08
2022-10-08T06:48:10.890Z,16.48
2022-10-08T06:50:38.170Z,17.63
2022-10-08T06:53:06.172Z,17.10
2022-10-08T06:55:33.866Z,18.00
2022-10-08T06:58:01.430Z,18.20
2022-10-08T07:00:29.108Z,14.30
2022-10-08T07:02:57.193Z,17.80
2022-10-08T07:05:24.585Z,19.67
2022-10-08T07:07:51.690Z,18.08
2022-10-08T07:10:19.358Z,18.95
2022-10-08T07:12:46.734Z,18.10
2022-10-08T07:15:14.050Z,17.25
2022-10-08T07:17:41.122Z,16.85
2022-10-08T07:20:08.322Z,15.95
2022-10-08T07:22:35.406Z,16.47
2022-10-08T07:25:02.511Z,15.40
2022-10-08T07:27:29.554Z,15.80
2022-10-08T07:29:56.667Z,17.48
2022-10-08T07:32:23.738Z,14.85
2022-10-08T07:34:50.826Z,15.32
2022-10-08T07:37:17.926Z,17.40
2022-10-08T07:39:45.602Z,17.02
2022-10-08T07:42:12.723Z,15.43
2022-10-08T07:44:39.761Z,13.75
2022-10-08T07:47:08.147Z,14.23
2022-10-08T07:49:35.229Z,13.75
2022-10-08T07:52:02.285Z,16.30
2022-10-08T07:54:29.375Z,14.55
2022-10-08T07:56:56.414Z,15.43
2022-10-08T07:59:23.139Z,14.70
2022-10-08T08:01:50.278Z,12.90
2022-10-08T08:04:17.355Z,13.50
2022-10-08T08:06:47.519Z,14.13
2022-10-08T08:09:15.009Z,14.48
2022-10-08T08:11:42.224Z,13.32
2022-10-08T08:14:09.532Z,13.88
2022-10-08T08:16:36.857Z,13.93
2022-10-08T08:19:04.112Z,13.23
2022-10-08T08:21:32.390Z,14.25
2022-10-08T08:24:02.935Z,11.90
2022-10-08T08:26:32.907Z,13.75
2022-10-08T08:29:01.538Z,12.52
2022-10-08T08:31:30.113Z,15.82
2022-10-08T08:33:58.655Z,23.98
2022-10-08T08:36:27.274Z,17.67
2022-10-08T08:38:54.476Z,14.80
2022-10-08T08:41:37.053Z,12.18
2022-10-08T08:44:09.269Z,15.70
2022-10-08T08:46:40.925Z,11.10
2022-10-08T08:49:15.009Z,13.30
2022-10-08T08:51:42.108Z,9.80
2022-10-08T08:54:09.451Z,11.02
2022-10-08T08:56:36.553Z,9.70
2022-10-08T08:59:06.540Z,7.67
2022-10-08T09:01:37.363Z,7.68
2022-10-08T09:04:07.396Z,8.60
2022-10-08T09:06:34.732Z,5.95
2022-10-08T09:09:02.872Z,8.43
2022-10-08T09:11:30.580Z,6.18
2022-10-08T09:13:58.685Z,7.13
2022-10-08T09:16:27.584Z,5.55
2022-10-08T09:18:54.739Z,7.05
2022-10-08T09:21:22.256Z,4.75
2022-10-08T09:23:49.360Z,4.07
2022-10-08T09:26:32.729Z,6.17
2022-10-08T09:29:00.741Z,5.32
2022-10-08T09:31:45.832Z,4.78
2022-10-08T09:34:13.198Z,5.60
2022-10-08T09:36:43.036Z,4.80
2022-10-08T09:39:26.758Z,5.95
2022-10-08T09:42:14.484Z,6.53
2022-10-08T09:44:43.088Z,6.03
2022-10-08T09:47:12.471Z,5.75
2022-10-08T09:49:39.568Z,5.20
2022-10-08T09:52:16.957Z,5.03
2022-10-08T09:54:48.629Z,3.72
2022-10-08T09:57:16.780Z,5.05
2022-10-08T09:59:49.788Z,4.97
2022-10-08T10:02:27.418Z,3.75
2022-10-08T10:04:55.245Z,3.33
2022-10-08T10:07:22.932Z,5.22
2022-10-08T10:09:54.899Z,3.42
2022-10-08T10:12:31.937Z,4.70
2022-10-08T10:15:02.007Z,3.80
2022-10-08T10:17:36.089Z,4.50
2022-10-08T10:20:12.667Z,3.78
2022-10-08T10:22:50.111Z,6.07
2022-10-08T10:25:20.347Z,3.15
2022-10-08T10:27:52.113Z,3.17
2022-10-08T10:30:19.227Z,3.78
2022-10-08T10:32:50.746Z,4.78
2022-10-08T10:35:17.855Z,5.45
2022-10-08T10:37:48.271Z,4.50
2022-10-08T10:40:24.257Z,6.10
2022-10-08T10:42:56.057Z,4.53
2022-10-08T10:45:25.451Z,3.70
2022-10-08T10:47:54.101Z,3.97
2022-10-08T10:50:25.686Z,3.78
2022-10-08T10:53:02.115Z,2.67
2022-10-08T10:55:33.954Z,3.78
2022-10-08T10:58:20.933Z,2.40
2022-10-08T11:00:59.960Z,4.20
2022-10-08T11:03:46.912Z,3.85
2022-10-08T11:06:33.911Z,3.55
2022-10-08T11:09:04.067Z,4.43
2022-10-08T11:11:36.246Z,3.20
2022-10-08T11:14:12.568Z,3.50
2022-10-08T11:16:40.700Z,4.25
2022-10-08T11:19:16.107Z,1.93
2022-10-08T11:21:46.190Z,4.05
2022-10-08T11:24:23.334Z,3.10
2022-10-08T11:27:11.467Z,4.45
2022-10-08T11:29:58.438Z,5.53
2022-10-08T11:32:27.003Z,3.20
2022-10-08T11:34:59.217Z,2.95
2022-10-08T11:37:28.934Z,4.68
2022-10-08T11:40:15.966Z,4.03
2022-10-08T11:43:04.661Z,3.67
2022-10-08T11:45:33.762Z,4.25
2022-10-08T11:48:04.455Z,4.80
2022-10-08T11:50:36.094Z,3.57
2022-10-08T11:53:10.662Z,3.83
2022-10-08T11:55:38.306Z,3.17
2022-10-08T11:58:08.997Z,4.72
2022-10-08T12:00:37.583Z,3.72
2022-10-08T12:03:06.424Z,3.53
2022-10-08T12:05:46.641Z,4.15
2022-10-08T12:08:36.385Z,4.60
2022-10-08T12:11:23.325Z,4.95
2022-10-08T12:14:10.309Z,3.28
2022-10-08T12:16:57.426Z,3.00
2022-10-08T12:19:40.791Z,3.30
2022-10-08T12:22:15.356Z,3.58
2022-10-08T12:24:50.223Z,3.35
2022-10-08T12:27:17.853Z,3.00
2022-10-08T12:30:05.097Z,2.75
2022-10-08T12:32:32.201Z,3.60
2022-10-08T12:35:00.108Z,3.50
2022-10-08T12:37:30.465Z,3.65
2022-10-08T12:40:00.837Z,3.93
2022-10-08T12:42:30.961Z,3.33
2022-10-08T12:44:58.006Z,2.80
2022-10-08T12:47:26.095Z,3.78
2022-10-08T12:49:57.245Z,3.25
2022-10-08T12:52:24.785Z,3.17
2022-10-08T12:54:54.817Z,4.33
2022-10-08T12:57:26.822Z,2.22
2022-10-08T17:06:17.485Z,4.78
2022-10-08T17:08:44.550Z,5.40
2022-10-08T17:11:13.173Z,3.75
2022-10-08T17:13:44.414Z,5.28
2022-10-08T17:16:11.669Z,5.20
2022-10-08T17:18:39.310Z,5.95
2022-10-08T17:21:06.849Z,3.60
2022-10-08T17:23:38.044Z,3.80
2022-10-08T17:26:06.762Z,5.35
2022-10-08T17:28:36.614Z,3.65
2022-10-08T17:31:05.018Z,5.47
2022-10-08T17:33:35.779Z,5.15
2022-10-08T17:36:05.674Z,5.88
2022-10-08T17:38:33.496Z,4.85
2022-10-08T17:41:00.713Z,5.00
2022-10-08T17:43:29.141Z,4.35
2022-10-08T17:45:56.310Z,4.63
2022-10-08T17:48:23.420Z,6.20
2022-10-08T17:50:50.517Z,6.32
2022-10-08T17:53:17.669Z,7.15
2022-10-08T17:55:44.860Z,7.40
2022-10-08T17:58:12.032Z,11.30
2022-10-08T18:00:39.169Z,10.70
2022-10-08T18:03:07.234Z,9.52
2022-10-08T18:05:34.402Z,5.10
2022-10-08T18:08:01.542Z,5.07
2022-10-08T18:10:28.566Z,6.28
2022-10-08T18:12:55.725Z,5.95
2022-10-08T18:15:24.021Z,4.90
2022-10-08T18:17:51.126Z,4.75
2022-10-08T18:20:18.265Z,6.30
2022-10-08T18:22:45.591Z,5.68
2022-10-08T18:25:13.009Z,5.38
2022-10-08T18:27:40.097Z,6.22
2022-10-08T18:30:07.629Z,4.60
2022-10-08T18:32:34.788Z,3.88
2022-10-08T18:35:02.001Z,5.43
2022-10-08T18:37:29.152Z,10.02
2022-10-08T18:39:56.301Z,10.45
2022-10-08T18:42:23.448Z,7.18
2022-10-08T18:44:50.244Z,7.20
2022-10-08T18:47:17.407Z,7.43
2022-10-08T18:49:44.623Z,8.93
2022-10-08T18:52:12.775Z,9.50
2022-10-08T18:54:39.914Z,7.32
2022-10-08T18:57:07.044Z,6.30
2022-10-08T18:59:34.885Z,5.85
2022-10-08T19:02:02.161Z,7.30
2022-10-08T19:04:29.615Z,7.50
2022-10-08T19:06:56.987Z,8.13
2022-10-08T19:09:24.186Z,9.23
2022-10-08T19:11:53.011Z,12.15
2022-10-08T19:14:21.499Z,10.90
2022-10-08T19:16:48.643Z,9.18
2022-10-08T19:19:16.947Z,8.43
2022-10-08T19:21:44.375Z,8.32
2022-10-08T19:24:14.365Z,10.75
2022-10-08T19:26:41.640Z,11.35
2022-10-08T19:29:14.219Z,9.82
2022-10-08T19:31:41.592Z,7.53
2022-10-08T19:34:09.038Z,8.10
2022-10-08T19:36:37.281Z,9.82
2022-10-08T19:39:05.727Z,12.25
2022-10-08T19:41:33.035Z,11.70
2022-10-08T19:44:00.496Z,8.00
2022-10-08T19:46:28.324Z,10.88
2022-10-08T19:48:56.854Z,9.05
2022-10-08T19:51:24.829Z,10.00
2022-10-08T19:53:52.317Z,10.93
2022-10-08T19:56:20.850Z,11.20
2022-10-08T19:58:49.701Z,11.88
2022-10-08T20:01:18.481Z,16.38
2022-10-08T20:03:46.836Z,17.83
2022-10-08T20:06:18.323Z,15.25
2022-10-08T20:08:47.801Z,15.20
2022-10-08T20:11:16.804Z,10.45
2022-10-08T20:13:45.830Z,10.05
2022-10-08T20:16:14.463Z,9.48
2022-10-08T20:18:41.805Z,9.82
2022-10-08T20:21:10.658Z,9.43
2022-10-08T20:23:38.857Z,9.18
2022-10-08T20:26:09.893Z,11.45
2022-10-08T20:28:37.187Z,11.43
2022-10-08T20:31:12.693Z,10.43
2022-10-08T20:33:41.310Z,9.38
2022-10-08T20:36:09.310Z,12.85
2022-10-08T20:38:36.491Z,14.45
2022-10-08T20:41:03.831Z,14.27
2022-10-08T20:43:31.486Z,11.82
2022-10-08T20:46:02.220Z,11.90
2022-10-08T20:48:31.531Z,11.20
2022-10-08T20:51:02.530Z,10.80
2022-10-08T20:53:29.958Z,10.65
2022-10-08T20:55:57.014Z,9.35
2022-10-08T20:58:24.286Z,9.38
2022-10-08T21:00:51.412Z,11.23
2022-10-08T21:03:18.554Z,6.70
2022-10-08T21:05:46.010Z,6.90
2022-10-08T21:08:12.987Z,9.25
2022-10-08T21:10:40.046Z,8.05
2022-10-08T21:13:07.161Z,7.80
2022-10-08T21:15:34.269Z,10.73
2022-10-08T21:18:01.346Z,8.73
2022-10-08T21:20:28.437Z,9.60
2022-10-08T21:22:55.506Z,9.82
2022-10-08T21:25:22.653Z,11.98
2022-10-08T21:27:49.747Z,12.43
2022-10-08T21:30:16.817Z,14.35
2022-10-08T21:32:43.933Z,23.02
2022-10-08T21:35:10.976Z,12.95
2022-10-08T21:37:38.361Z,10.50
2022-10-08T21:40:05.648Z,12.60
2022-10-08T21:42:32.787Z,12.68
2022-10-08T21:44:59.901Z,13.02
2022-10-08T21:47:27.024Z,14.68
2022-10-08T21:49:54.098Z,13.40
2022-10-08T21:52:21.226Z,13.93
2022-10-08T21:54:47.867Z,12.20
2022-10-08T21:57:16.441Z,9.48
2022-10-08T21:59:43.711Z,11.60
2022-10-08T22:02:10.936Z,11.50
2022-10-08T22:04:38.070Z,15.85
2022-10-08T22:07:05.379Z,8.82
2022-10-08T22:09:34.421Z,11.73
2022-10-08T22:12:02.291Z,14.05
2022-10-08T22:14:29.925Z,10.10
2022-10-08T22:16:57.366Z,10.15
2022-10-08T22:19:24.540Z,10.75
2022-10-08T22:21:51.750Z,9.05
2022-10-08T22:24:18.874Z,12.55
2022-10-08T22:26:47.045Z,10.13
2022-10-08T22:29:14.534Z,8.60
2022-10-08T22:31:41.625Z,10.73
2022-10-08T22:34:08.862Z,9.57
2022-10-08T22:36:38.369Z,10.88
2022-10-08T22:39:05.461Z,9.00
2022-10-08T22:41:32.896Z,7.65
2022-10-08T22:44:00.433Z,9.48
2022-10-08T22:46:28.814Z,7.60
2022-10-08T22:48:58.214Z,9.93
2022-10-08T22:51:25.391Z,7.82
2022-10-08T22:53:52.600Z,11.00
2022-10-08T22:56:20.944Z,13.23
2022-10-08T22:58:48.553Z,9.75
2022-10-08T23:01:15.521Z,7.88
2022-10-08T23:03:42.633Z,13.00
2022-10-08T23:06:14.941Z,11.82
2022-10-08T23:08:42.696Z,19.08
2022-10-08T23:11:10.102Z,11.55
2022-10-08T23:13:37.212Z,8.05
2022-10-08T23:16:07.123Z,7.85
2022-10-08T23:18:35.877Z,9.95
2022-10-08T23:21:03.351Z,8.85
2022-10-08T23:23:30.480Z,9.32
2022-10-08T23:25:58.376Z,12.95
2022-10-08T23:28:25.789Z,9.77
2022-10-08T23:30:52.973Z,6.32
2022-10-08T23:33:20.283Z,6.13
2022-10-08T23:35:54.400Z,9.68
2022-10-08T23:38:21.588Z,9.52
2022-10-08T23:40:48.929Z,11.43
2022-10-08T23:43:16.056Z,9.63
2022-10-08T23:45:42.721Z,8.10
2022-10-08T23:48:09.615Z,9.48
2022-10-08T23:50:37.552Z,8.55
2022-10-08T23:53:04.656Z,9.45
2022-10-08T23:55:31.748Z,11.57
2022-10-08T23:57:58.835Z,8.60
